Time;durP1;ratioP1;P1;durP2;ratioP2;P2;SDS_P1;SDS_P2;PMS_P1;PMS_P2;Temp;Humidity;BMP_temperature;BMP_pressure;BME280_temperature;BME280_humidity;BME280_pressure;Samples;Min_cycle;Max_cycle;Signal;HPM_P1;HPM_P2
2023/10/16 00:00:30;;;;;;;14.50;11.53;;;;;;;;;;5057536;28;20218;-85
2023/10/16 00:02:59;;;;;;;13.70;12.30;;;;;;;;;;5044156;28;20201;-84
2023/10/16 00:05:28;;;;;;;11.90;10.67;;;;;;;;;;5073476;28;20209;-83
2023/10/16 00:07:56;;;;;;;17.83;12.23;;;;;;;;;;5054584;28;20756;-85
2023/10/16 00:10:24;;;;;;;14.40;12.57;;;;;;;;;;5054164;28;20635;-85
2023/10/16 00:12:51;;;;;;;16.27;11.67;;;;;;;;;;5046375;28;20596;-85
2023/10/16 00:15:18;;;;;;;20.60;11.80;;;;;;;;;;5049485;28;20205;-84
2023/10/16 00:17:45;;;;;;;16.53;12.13;;;;;;;;;;5051673;28;20221;-85
2023/10/16 00:20:24;;;;;;;11.63;10.47;;;;;;;;;;5066976;28;20210;-84
2023/10/16 00:22:51;;;;;;;11.87;10.67;;;;;;;;;;5074413;28;20296;-84
2023/10/16 00:25:24;;;;;;;13.80;11.13;;;;;;;;;;5069748;28;20716;-85
2023/10/16 00:27:51;;;;;;;10.33;9.33;;;;;;;;;;5054557;28;20263;-86
2023/10/16 00:30:18;;;;;;;14.43;9.50;;;;;;;;;;5067370;28;20601;-85
2023/10/16 00:32:45;;;;;;;12.30;9.87;;;;;;;;;;5054496;28;20279;-86
2023/10/16 00:35:15;;;;;;;12.63;9.47;;;;;;;;;;5054322;28;20199;-85
2023/10/16 00:37:42;;;;;;;13.13;10.07;;;;;;;;;;5066628;28;20207;-86
2023/10/16 00:40:10;;;;;;;11.87;9.37;;;;;;;;;;5060660;28;20213;-85
2023/10/16 00:42:43;;;;;;;15.90;8.63;;;;;;;;;;5060332;28;20729;-87
2023/10/16 00:45:10;;;;;;;9.03;7.37;;;;;;;;;;5074526;28;20292;-86
2023/10/16 00:47:39;;;;;;;10.43;8.57;;;;;;;;;;5060582;28;20215;-86
2023/10/16 00:50:08;;;;;;;10.27;7.80;;;;;;;;;;5053746;28;20254;-85
2023/10/16 00:52:36;;;;;;;9.33;7.50;;;;;;;;;;5067214;28;20601;-87
2023/10/16 00:55:03;;;;;;;11.73;8.40;;;;;;;;;;5053952;28;20211;-85
2023/10/16 00:57:30;;;;;;;12.30;8.70;;;;;;;;;;5054025;28;20206;-85
2023/10/16 00:59:58;;;;;;;8.33;7.53;;;;;;;;;;5062910;28;20220;-85
2023/10/16 01:02:31;;;;;;;9.93;8.23;;;;;;;;;;5057397;28;20234;-87
2023/10/16 01:05:01;;;;;;;11.40;7.90;;;;;;;;;;5063883;28;20209;-86
2023/10/16 01:07:28;;;;;;;13.70;8.03;;;;;;;;;;5069308;28;20751;-85
2023/10/16 01:09:57;;;;;;;8.83;7.93;;;;;;;;;;5064639;28;20219;-88
2023/10/16 01:12:24;;;;;;;8.67;7.63;;;;;;;;;;5068148;28;20207;-85
2023/10/16 01:14:51;;;;;;;8.53;7.33;;;;;;;;;;5064493;28;20215;-85
2023/10/16 01:17:29;;;;;;;10.60;8.07;;;;;;;;;;5054553;28;20654;-85
2023/10/16 01:19:56;;;;;;;8.07;6.77;;;;;;;;;;5052809;28;20243;-88
2023/10/16 01:22:29;;;;;;;9.10;7.40;;;;;;;;;;5053098;28;20288;-85
2023/10/16 01:24:59;;;;;;;12.03;7.47;;;;;;;;;;5067473;28;20221;-87
2023/10/16 01:27:29;;;;;;;10.67;6.33;;;;;;;;;;5064738;28;20213;-87
2023/10/16 01:29:59;;;;;;;9.53;6.40;;;;;;;;;;5066530;28;20614;-89
2023/10/16 01:32:28;;;;;;;7.30;6.43;;;;;;;;;;5062532;28;20562;-88
2023/10/16 01:34:55;;;;;;;6.83;6.23;;;;;;;;;;5059449;28;20586;-85
2023/10/16 01:37:23;;;;;;;9.40;5.87;;;;;;;;;;5072937;28;20303;-85
2023/10/16 01:39:53;;;;;;;7.30;6.57;;;;;;;;;;5054746;28;20213;-85
2023/10/16 01:42:22;;;;;;;8.20;6.90;;;;;;;;;;5052292;28;20226;-85
2023/10/16 01:44:51;;;;;;;6.57;5.73;;;;;;;;;;5065999;28;20242;-85
2023/10/16 01:47:18;;;;;;;8.17;5.50;;;;;;;;;;5064637;28;20207;-86
2023/10/16 01:49:47;;;;;;;5.93;4.70;;;;;;;;;;5066791;28;20242;-86
2023/10/16 01:52:14;;;;;;;6.90;4.90;;;;;;;;;;5063914;28;20276;-86
2023/10/16 01:54:44;;;;;;;10.87;6.13;;;;;;;;;;5054360;28;20220;-85
2023/10/16 01:57:12;;;;;;;6.73;5.37;;;;;;;;;;5065086;28;20988;-85
2023/10/16 01:59:42;;;;;;;8.97;6.33;;;;;;;;;;5059445;28;20244;-86
2023/10/16 02:02:09;;;;;;;5.57;5.03;;;;;;;;;;5071909;28;20359;-87
2023/10/16 02:04:37;;;;;;;5.90;5.30;;;;;;;;;;5059460;28;20289;-86
2023/10/16 02:07:04;;;;;;;6.80;5.20;;;;;;;;;;5058799;28;20706;-85
2023/10/16 02:09:31;;;;;;;7.73;4.57;;;;;;;;;;5064521;28;20702;-86
2023/10/16 02:12:00;;;;;;;6.03;4.53;;;;;;;;;;5065327;28;20209;-87
2023/10/16 02:14:27;;;;;;;7.20;4.30;;;;;;;;;;5052697;28;20628;-86
2023/10/16 02:16:57;;;;;;;10.27;4.47;;;;;;;;;;5052494;28;20214;-87
2023/10/16 02:19:25;;;;;;;5.40;4.07;;;;;;;;;;5062295;28;20207;-88
2023/10/16 02:21:53;;;;;;;5.40;4.13;;;;;;;;;;5071925;28;20228;-87
2023/10/16 02:24:20;;;;;;;5.97;4.30;;;;;;;;;;5072730;28;20266;-86
2023/10/16 02:26:57;;;;;;;5.80;5.20;;;;;;;;;;5068360;28;20221;-84
2023/10/16 02:29:24;;;;;;;5.03;4.30;;;;;;;;;;5063938;28;20562;-85
2023/10/16 02:31:51;;;;;;;4.23;3.90;;;;;;;;;;5058224;28;20205;-87
2023/10/16 02:34:23;;;;;;;3.97;3.63;;;;;;;;;;5059727;28;20233;-85
2023/10/16 02:36:54;;;;;;;4.00;3.63;;;;;;;;;;5051709;28;20205;-86
2023/10/16 02:42:03;;;;;;;4.77;3.57;;;;;;;;;;5060698;28;20228;-86
2023/10/16 02:44:34;;;;;;;7.23;4.00;;;;;;;;;;5055054;28;20222;-86
2023/10/16 02:47:05;;;;;;;3.63;3.33;;;;;;;;;;5055636;28;20686;-84
2023/10/16 02:49:34;;;;;;;4.03;3.60;;;;;;;;;;5067252;28;20233;-83
2023/10/16 02:52:01;;;;;;;4.43;3.40;;;;;;;;;;5068654;28;20227;-82
2023/10/16 02:54:29;;;;;;;4.43;3.53;;;;;;;;;;5060593;28;20237;-83
2023/10/16 02:56:59;;;;;;;3.37;3.07;;;;;;;;;;5063186;28;20205;-86
2023/10/16 02:59:27;;;;;;;6.57;3.67;;;;;;;;;;5062164;28;20206;-83
2023/10/16 03:01:56;;;;;;;3.70;3.30;;;;;;;;;;5064586;28;20256;-83
2023/10/16 03:04:26;;;;;;;3.17;2.87;;;;;;;;;;5058205;28;20595;-83
2023/10/16 03:06:56;;;;;;;4.30;3.00;;;;;;;;;;5044423;28;20240;-85
2023/10/16 03:09:30;;;;;;;3.47;2.63;;;;;;;;;;5058053;28;20209;-85
2023/10/16 03:12:04;;;;;;;2.90;2.60;;;;;;;;;;5049404;28;20207;-85
2023/10/16 03:14:44;;;;;;;5.10;3.13;;;;;;;;;;5058682;28;20610;-85
2023/10/16 03:17:19;;;;;;;3.10;2.73;;;;;;;;;;5057043;28;20631;-84
2023/10/16 03:19:48;;;;;;;6.27;2.77;;;;;;;;;;5042482;28;20208;-84
2023/10/16 03:22:17;;;;;;;4.17;2.53;;;;;;;;;;5062780;28;20228;-84
2023/10/16 03:24:46;;;;;;;3.23;3.00;;;;;;;;;;5069897;28;20204;-84
2023/10/16 03:27:27;;;;;;;4.03;2.60;;;;;;;;;;5070916;28;20295;-86
2023/10/16 03:29:55;;;;;;;3.70;2.37;;;;;;;;;;5057237;28;20668;-82
2023/10/16 03:32:23;;;;;;;4.07;2.87;;;;;;;;;;5057351;28;20201;-82
2023/10/16 03:34:50;;;;;;;2.23;2.03;;;;;;;;;;5070711;28;20219;-82
2023/10/16 03:37:19;;;;;;;3.10;2.80;;;;;;;;;;5043870;28;20232;-81
2023/10/16 03:39:55;;;;;;;2.67;2.40;;;;;;;;;;5073646;28;20671;-84
2023/10/16 03:42:23;;;;;;;3.03;2.57;;;;;;;;;;5057427;28;20267;-81
2023/10/16 03:44:49;;;;;;;3.07;2.30;;;;;;;;;;5073456;28;20212;-82
2023/10/16 03:47:16;;;;;;;2.37;2.17;;;;;;;;;;5073489;28;20211;-82
2023/10/16 03:49:46;;;;;;;4.87;2.50;;;;;;;;;;5072537;28;20228;-79
2023/10/16 03:52:13;;;;;;;3.40;2.40;;;;;;;;;;5062616;28;20688;-80
2023/10/16 03:54:41;;;;;;;2.53;2.33;;;;;;;;;;5073051;28;20201;-80
2023/10/16 03:57:11;;;;;;;2.97;2.67;;;;;;;;;;5061605;28;20209;-80
2023/10/16 03:59:39;;;;;;;4.17;2.10;;;;;;;;;;5073455;28;20232;-81
2023/10/16 04:02:16;;;;;;;3.47;2.07;;;;;;;;;;5074273;28;20609;-80
2023/10/16 04:04:42;;;;;;;4.33;2.20;;;;;;;;;;5050230;28;20387;-83
2023/10/16 04:07:13;;;;;;;5.47;2.10;;;;;;;;;;5073549;28;20219;-80
2023/10/16 04:09:49;;;;;;;2.40;2.23;;;;;;;;;;5074075;28;20212;-80
2023/10/16 04:12:17;;;;;;;3.43;2.13;;;;;;;;;;5064450;28;20594;-80
2023/10/16 04:14:50;;;;;;;3.30;1.90;;;;;;;;;;5069499;28;20263;-79
2023/10/16 04:17:16;;;;;;;2.97;1.50;;;;;;;;;;5063542;28;20232;-80
2023/10/16 04:19:52;;;;;;;4.30;1.50;;;;;;;;;;5071246;28;20235;-81
2023/10/16 04:22:23;;;;;;;2.47;1.70;;;;;;;;;;5061684;28;20240;-80
2023/10/16 04:24:55;;;;;;;2.10;1.90;;;;;;;;;;5073527;28;20742;-80
2023/10/16 04:27:32;;;;;;;3.17;1.40;;;;;;;;;;5073488;28;20219;-80
2023/10/16 04:33:13;;;;;;;2.80;1.60;;;;;;;;;;5024941;28;20718;-78
2023/10/16 04:38:52;;;;;;;1.57;1.47;;;;;;;;;;5063107;28;20271;-78
2023/10/16 04:46:57;;;;;;;6.10;1.50;;;;;;;;;;5045952;28;20679;-78
2023/10/16 04:49:28;;;;;;;1.53;1.30;;;;;;;;;;5062231;28;20235;-79
2023/10/16 04:52:01;;;;;;;3.83;1.47;;;;;;;;;;5066487;28;21983;-80
2023/10/16 04:54:37;;;;;;;1.17;1.07;;;;;;;;;;5063081;28;20263;-79
2023/10/16 05:00:12;;;;;;;1.90;1.20;;;;;;;;;;5066237;28;20275;-79
2023/10/16 05:02:41;;;;;;;1.87;1.77;;;;;;;;;;5073086;28;20220;-78
2023/10/16 05:08:13;;;;;;;2.93;1.90;;;;;;;;;;5065651;28;20270;-80
2023/10/16 05:13:43;;;;;;;5.77;1.50;;;;;;;;;;5051132;28;20706;-79
2023/10/16 05:19:03;;;;;;;4.67;2.30;;;;;;;;;;5061554;28;21081;-79
2023/10/16 06:16:18;;;;;;;6.97;1.60;;;;;;;;;;5071322;28;20207;-80
2023/10/16 06:18:48;;;;;;;1.93;1.57;;;;;;;;;;5065298;28;20202;-79
2023/10/16 06:21:15;;;;;;;5.50;1.60;;;;;;;;;;5071767;28;20592;-80
2023/10/16 06:23:48;;;;;;;3.10;1.50;;;;;;;;;;5068867;28;20226;-79
2023/10/16 06:26:15;;;;;;;9.63;2.20;;;;;;;;;;5069091;28;20203;-79
2023/10/16 06:28:48;;;;;;;3.50;1.90;;;;;;;;;;5069424;28;20197;-80
2023/10/16 06:31:22;;;;;;;2.97;1.33;;;;;;;;;;5069357;28;20248;-80
2023/10/16 06:33:56;;;;;;;5.47;2.67;;;;;;;;;;5067004;28;20288;-80
2023/10/16 06:36:24;;;;;;;1.70;1.10;;;;;;;;;;5067303;28;20208;-80
2023/10/16 06:38:51;;;;;;;4.93;1.40;;;;;;;;;;5071282;28;20203;-79
2023/10/16 06:41:19;;;;;;;1.40;1.30;;;;;;;;;;5066819;28;20241;-79
2023/10/16 06:43:48;;;;;;;1.57;1.47;;;;;;;;;;5070261;28;20226;-79
2023/10/16 06:46:21;;;;;;;4.67;1.93;;;;;;;;;;5067617;28;20279;-78
2023/10/16 06:48:50;;;;;;;5.07;1.67;;;;;;;;;;5070599;28;20285;-80
2023/10/16 06:51:17;;;;;;;3.23;1.60;;;;;;;;;;5070163;28;20202;-78
2023/10/16 06:53:44;;;;;;;9.50;1.53;;;;;;;;;;5068506;28;20205;-77
2023/10/16 06:56:18;;;;;;;4.90;2.77;;;;;;;;;;5069978;28;20200;-78
2023/10/16 06:58:49;;;;;;;5.37;2.57;;;;;;;;;;5065486;28;20197;-78
2023/10/16 07:01:19;;;;;;;3.23;1.83;;;;;;;;;;5065337;28;20207;-78
2023/10/16 07:03:47;;;;;;;4.07;1.50;;;;;;;;;;5051955;28;20229;-78
2023/10/16 07:06:24;;;;;;;2.13;1.40;;;;;;;;;;5051025;28;20202;-78
2023/10/16 07:08:52;;;;;;;6.23;1.93;;;;;;;;;;5047135;28;20201;-79
2023/10/16 07:11:21;;;;;;;3.60;1.97;;;;;;;;;;5069940;28;20213;-78
2023/10/16 07:13:48;;;;;;;13.17;4.80;;;;;;;;;;5069985;28;20201;-79
2023/10/16 07:16:15;;;;;;;7.87;2.00;;;;;;;;;;5070483;28;20201;-78
2023/10/16 07:18:43;;;;;;;11.07;3.07;;;;;;;;;;5070702;28;20639;-80
2023/10/16 07:21:17;;;;;;;2.70;1.70;;;;;;;;;;5069672;28;20199;-79
2023/10/16 07:23:45;;;;;;;1.33;1.23;;;;;;;;;;5060775;28;20237;-78
2023/10/16 07:26:16;;;;;;;3.23;1.53;;;;;;;;;;5057453;28;20205;-79
2023/10/16 07:28:48;;;;;;;6.77;3.77;;;;;;;;;;5059233;28;20215;-79
2023/10/16 07:31:16;;;;;;;3.77;1.47;;;;;;;;;;5055876;28;20244;-77
2023/10/16 07:33:43;;;;;;;2.00;1.40;;;;;;;;;;5050846;28;20202;-79
2023/10/16 07:36:12;;;;;;;7.87;2.57;;;;;;;;;;5069890;28;20201;-79
2023/10/16 07:38:39;;;;;;;4.97;2.17;;;;;;;;;;5069998;28;20228;-81
2023/10/16 07:41:09;;;;;;;5.80;2.13;;;;;;;;;;5044339;28;20255;-81
2023/10/16 07:43:36;;;;;;;5.87;1.97;;;;;;;;;;5069815;28;20282;-79
2023/10/16 07:46:19;;;;;;;2.17;1.93;;;;;;;;;;5070692;28;20203;-78
2023/10/16 07:48:50;;;;;;;10.43;2.43;;;;;;;;;;5070159;28;20694;-85
2023/10/16 07:51:20;;;;;;;1.63;1.53;;;;;;;;;;5069552;28;20640;-79
2023/10/16 07:53:48;;;;;;;3.73;1.63;;;;;;;;;;5069937;28;20284;-81
2023/10/16 07:56:25;;;;;;;5.47;1.83;;;;;;;;;;5070221;28;20288;-78
2023/10/16 07:58:54;;;;;;;7.50;2.13;;;;;;;;;;5070245;28;20210;-77
2023/10/16 08:01:36;;;;;;;2.40;1.80;;;;;;;;;;5069610;28;20722;-79
2023/10/16 08:04:05;;;;;;;2.77;1.53;;;;;;;;;;5068174;28;20231;-78
2023/10/16 08:06:32;;;;;;;2.53;1.87;;;;;;;;;;5068613;28;20209;-77
2023/10/16 08:11:42;;;;;;;1.70;1.60;;;;;;;;;;5058181;28;20237;-86
2023/10/16 08:14:10;;;;;;;4.20;1.93;;;;;;;;;;5062944;28;20289;-84
2023/10/16 08:16:38;;;;;;;5.20;1.60;;;;;;;;;;5063944;28;20197;-82
2023/10/16 08:19:14;;;;;;;2.43;1.53;;;;;;;;;;5070411;28;20225;-80
2023/10/16 08:21:42;;;;;;;5.33;3.83;;;;;;;;;;5067092;28;20201;-87
2023/10/16 08:24:12;;;;;;;38.00;19.60;;;;;;;;;;5050164;28;20225;-81
2023/10/16 08:26:44;;;;;;;14.40;8.63;;;;;;;;;;5053908;28;20248;-78
2023/10/16 08:29:19;;;;;;;4.27;2.40;;;;;;;;;;5062848;28;20200;-77
2023/10/16 08:31:52;;;;;;;19.43;9.47;;;;;;;;;;5062361;28;20232;-82
2023/10/16 08:34:20;;;;;;;2.70;2.10;;;;;;;;;;5073289;28;20271;-79
2023/10/16 08:36:51;;;;;;;6.73;2.73;;;;;;;;;;5055195;28;20267;-79
2023/10/16 08:39:21;;;;;;;2.73;1.83;;;;;;;;;;5046858;28;20205;-82
2023/10/16 08:41:53;;;;;;;5.63;2.87;;;;;;;;;;5050651;28;20209;-77
2023/10/16 08:44:21;;;;;;;4.83;1.87;;;;;;;;;;5058030;28;20236;-84
2023/10/16 08:47:16;;;;;;;3.93;2.00;;;;;;;;;;5066288;28;20204;-78
2023/10/16 08:49:51;;;;;;;4.30;1.80;;;;;;;;;;5066787;28;20224;-80
2023/10/16 08:52:21;;;;;;;3.53;1.80;;;;;;;;;;5059576;28;20703;-79
2023/10/16 08:55:00;;;;;;;3.67;2.10;;;;;;;;;;5069594;28;20201;-79
2023/10/16 08:57:29;;;;;;;2.63;2.07;;;;;;;;;;5057700;28;20207;-80
2023/10/16 08:59:58;;;;;;;1.50;1.40;;;;;;;;;;5053310;28;20591;-80
2023/10/16 09:02:26;;;;;;;2.20;1.43;;;;;;;;;;5042136;28;20215;-84
2023/10/16 09:04:54;;;;;;;4.77;2.57;;;;;;;;;;5069625;28;20228;-83
2023/10/16 09:07:23;;;;;;;3.70;2.00;;;;;;;;;;5072799;28;20676;-82
2023/10/16 09:09:53;;;;;;;1.87;1.63;;;;;;;;;;5072377;28;20205;-83
2023/10/16 09:12:26;;;;;;;6.30;1.50;;;;;;;;;;5064595;28;20194;-82
2023/10/16 09:14:55;;;;;;;1.30;1.20;;;;;;;;;;5066355;28;20681;-82
2023/10/16 09:17:25;;;;;;;1.73;1.63;;;;;;;;;;5062984;28;20211;-83
2023/10/16 09:19:53;;;;;;;3.80;1.40;;;;;;;;;;5055444;28;20197;-82
2023/10/16 09:22:23;;;;;;;3.73;1.70;;;;;;;;;;5064153;28;20209;-83
2023/10/16 09:24:51;;;;;;;2.43;1.37;;;;;;;;;;5072717;28;20699;-81
2023/10/16 09:27:22;;;;;;;3.50;1.43;;;;;;;;;;5060633;28;20214;-82
2023/10/16 09:29:54;;;;;;;3.33;1.63;;;;;;;;;;5058994;28;20197;-83
2023/10/16 09:32:27;;;;;;;6.20;2.43;;;;;;;;;;5059155;28;20206;-83
2023/10/16 09:34:54;;;;;;;5.60;1.50;;;;;;;;;;5053160;28;20203;-83
2023/10/16 09:37:24;;;;;;;1.83;1.70;;;;;;;;;;5066562;28;20221;-82
2023/10/16 09:39:53;;;;;;;2.40;1.40;;;;;;;;;;5063835;28;20207;-84
2023/10/16 09:42:24;;;;;;;2.10;1.13;;;;;;;;;;5065847;28;20218;-81
2023/10/16 09:44:59;;;;;;;2.77;1.47;;;;;;;;;;5052659;28;21257;-81
2023/10/16 09:47:30;;;;;;;3.07;1.20;;;;;;;;;;5070466;28;20202;-82
2023/10/16 09:49:59;;;;;;;6.07;1.60;;;;;;;;;;5058405;28;20229;-83
2023/10/16 09:52:26;;;;;;;9.57;1.73;;;;;;;;;;5072476;28;20293;-84
2023/10/16 09:54:53;;;;;;;1.90;1.30;;;;;;;;;;5039229;28;20207;-82
2023/10/16 09:57:22;;;;;;;6.13;1.20;;;;;;;;;;5065234;28;20211;-86
2023/10/16 09:59:54;;;;;;;10.83;1.63;;;;;;;;;;5065202;28;20306;-85
2023/10/16 10:02:25;;;;;;;2.03;1.33;;;;;;;;;;5067356;28;20245;-83
2023/10/16 10:04:59;;;;;;;6.10;1.30;;;;;;;;;;5063366;28;20233;-82
2023/10/16 10:07:38;;;;;;;2.20;1.30;;;;;;;;;;5068863;28;20205;-84
2023/10/16 10:12:48;;;;;;;1.43;1.00;;;;;;;;;;5039070;28;20330;-83
2023/10/16 10:15:20;;;;;;;2.90;1.20;;;;;;;;;;5066530;28;20622;-82
2023/10/16 10:17:47;;;;;;;5.63;2.00;;;;;;;;;;5071937;28;20215;-82
2023/10/16 10:20:23;;;;;;;1.77;1.67;;;;;;;;;;5071899;28;20208;-85
2023/10/16 10:22:55;;;;;;;2.43;1.53;;;;;;;;;;5072148;28;20693;-84
2023/10/16 10:25:29;;;;;;;1.10;1.03;;;;;;;;;;5070781;28;20683;-85
2023/10/16 10:27:57;;;;;;;1.13;1.07;;;;;;;;;;5047683;28;20202;-83
2023/10/16 10:30:27;;;;;;;8.23;3.47;;;;;;;;;;5045116;28;20252;-84
2023/10/16 10:32:55;;;;;;;1.53;1.20;;;;;;;;;;5057509;28;20205;-85
2023/10/16 10:35:28;;;;;;;1.17;1.03;;;;;;;;;;5065102;28;20212;-84
2023/10/16 10:38:07;;;;;;;3.67;1.37;;;;;;;;;;5051960;28;20296;-85
2023/10/16 10:40:35;;;;;;;4.10;1.43;;;;;;;;;;5071606;28;20224;-85
2023/10/16 10:43:04;;;;;;;2.30;1.60;;;;;;;;;;5068607;28;20209;-84
2023/10/16 10:45:35;;;;;;;1.30;1.20;;;;;;;;;;5061611;28;20238;-83
2023/10/16 10:48:09;;;;;;;3.70;1.53;;;;;;;;;;5056645;28;20205;-85
2023/10/16 10:50:40;;;;;;;6.60;1.63;;;;;;;;;;5071445;28;20236;-86
2023/10/16 10:53:16;;;;;;;1.43;1.33;;;;;;;;;;5058038;28;20213;-86
2023/10/16 10:55:53;;;;;;;1.83;1.40;;;;;;;;;;5071219;28;20220;-88
2023/10/16 10:58:23;;;;;;;2.43;1.30;;;;;;;;;;5051207;28;20244;-84
2023/10/16 11:00:51;;;;;;;3.50;1.23;;;;;;;;;;5051248;28;20695;-85
2023/10/16 11:03:31;;;;;;;2.80;1.77;;;;;;;;;;5061225;28;20209;-84
2023/10/16 11:05:59;;;;;;;2.47;1.27;;;;;;;;;;5057576;28;20710;-86
2023/10/16 11:08:29;;;;;;;1.30;1.20;;;;;;;;;;5059256;28;20206;-85
2023/10/16 11:10:56;;;;;;;3.20;2.10;;;;;;;;;;5051518;28;20215;-81
2023/10/16 11:13:26;;;;;;;2.47;1.40;;;;;;;;;;5064067;28;20201;-83
2023/10/16 11:15:54;;;;;;;2.07;1.20;;;;;;;;;;5050852;28;20212;-83
2023/10/16 11:18:21;;;;;;;4.83;1.40;;;;;;;;;;5044281;28;20676;-82
2023/10/16 11:20:49;;;;;;;3.80;1.50;;;;;;;;;;5070688;28;20203;-85
2023/10/16 11:23:21;;;;;;;2.10;1.50;;;;;;;;;;5070521;28;20201;-85
2023/10/16 11:25:51;;;;;;;2.70;1.30;;;;;;;;;;5062758;28;20216;-84
2023/10/16 11:28:21;;;;;;;1.53;1.43;;;;;;;;;;5065341;28;20209;-84
2023/10/16 11:30:53;;;;;;;2.13;1.50;;;;;;;;;;5070471;28;20216;-84
2023/10/16 11:33:27;;;;;;;1.50;1.40;;;;;;;;;;5070489;28;20210;-84
2023/10/16 11:36:02;;;;;;;2.80;1.40;;;;;;;;;;5069468;28;20202;-83
2023/10/16 11:38:31;;;;;;;3.23;2.07;;;;;;;;;;5058961;28;20291;-81
2023/10/16 11:41:04;;;;;;;3.20;1.73;;;;;;;;;;5070168;28;20213;-82
2023/10/16 11:43:33;;;;;;;2.50;1.60;;;;;;;;;;5048752;28;20284;-80
2023/10/16 11:46:06;;;;;;;2.40;1.60;;;;;;;;;;5057014;28;20201;-86
2023/10/16 11:48:47;;;;;;;1.60;1.50;;;;;;;;;;5071119;28;20205;-88
2023/10/16 11:51:16;;;;;;;2.27;1.93;;;;;;;;;;5040691;28;20194;-85
2023/10/16 11:53:44;;;;;;;4.17;2.07;;;;;;;;;;5050965;28;20707;-85
2023/10/16 11:56:12;;;;;;;6.73;1.80;;;;;;;;;;5056082;28;20215;-86
2023/10/16 11:58:40;;;;;;;1.70;1.60;;;;;;;;;;5060590;28;20202;-83
2023/10/16 12:01:09;;;;;;;8.17;1.67;;;;;;;;;;5057292;28;20205;-81
2023/10/16 12:03:38;;;;;;;3.67;2.00;;;;;;;;;;5063926;28;20714;-85
2023/10/16 12:06:08;;;;;;;2.13;1.60;;;;;;;;;;5054250;28;20202;-84
2023/10/16 12:08:36;;;;;;;3.33;1.70;;;;;;;;;;5054656;28;20206;-83
2023/10/16 12:11:05;;;;;;;2.43;1.90;;;;;;;;;;5067838;28;20205;-84
2023/10/16 12:13:31;;;;;;;3.07;1.67;;;;;;;;;;5066523;28;20680;-83
2023/10/16 12:15:59;;;;;;;1.87;1.50;;;;;;;;;;5060520;28;20763;-85
2023/10/16 12:18:28;;;;;;;5.87;1.60;;;;;;;;;;5061554;28;20202;-85
2023/10/16 12:21:04;;;;;;;1.73;1.53;;;;;;;;;;5060394;28;20197;-84
2023/10/16 12:23:33;;;;;;;3.87;1.60;;;;;;;;;;5072930;28;20588;-84
2023/10/16 12:26:01;;;;;;;1.67;1.30;;;;;;;;;;5053811;28;20218;-84
2023/10/16 12:28:31;;;;;;;2.27;1.30;;;;;;;;;;5067003;28;20561;-83
2023/10/16 12:30:59;;;;;;;1.83;1.60;;;;;;;;;;5063485;28;20217;-83
2023/10/16 12:33:26;;;;;;;3.37;1.67;;;;;;;;;;5059893;28;20597;-84
2023/10/16 12:35:55;;;;;;;1.53;1.43;;;;;;;;;;5064399;28;20233;-83
2023/10/16 12:38:23;;;;;;;2.33;1.20;;;;;;;;;;5066796;28;20198;-83
2023/10/16 12:40:53;;;;;;;2.50;1.80;;;;;;;;;;5064051;28;20216;-84
2023/10/16 12:43:21;;;;;;;2.93;1.60;;;;;;;;;;5073405;28;20236;-83
2023/10/16 12:45:50;;;;;;;3.87;1.23;;;;;;;;;;5073592;28;20657;-87
2023/10/16 12:48:18;;;;;;;1.20;1.07;;;;;;;;;;5073240;28;20284;-83
2023/10/16 12:50:47;;;;;;;5.00;1.13;;;;;;;;;;5073607;28;20228;-83
2023/10/16 12:53:14;;;;;;;2.80;1.30;;;;;;;;;;5073522;28;20288;-82
2023/10/16 12:55:41;;;;;;;1.27;1.17;;;;;;;;;;5059768;28;20225;-85
2023/10/16 12:58:10;;;;;;;1.87;1.30;;;;;;;;;;5073140;28;20696;-83
2023/10/16 13:00:39;;;;;;;1.67;1.40;;;;;;;;;;5073489;28;20205;-82
2023/10/16 13:03:13;;;;;;;2.50;2.30;;;;;;;;;;5072633;28;20664;-83
2023/10/16 13:05:40;;;;;;;2.20;1.43;;;;;;;;;;5059392;28;20230;-83
2023/10/16 13:08:09;;;;;;;2.23;1.37;;;;;;;;;;5072813;28;20205;-83
2023/10/16 13:10:36;;;;;;;7.67;1.90;;;;;;;;;;5071981;28;20647;-83
2023/10/16 13:13:03;;;;;;;3.27;1.93;;;;;;;;;;5062427;28;20210;-82
2023/10/16 13:15:31;;;;;;;2.10;1.13;;;;;;;;;;5065971;28;20574;-82
2023/10/16 13:17:59;;;;;;;2.07;1.40;;;;;;;;;;5062705;28;20278;-83
2023/10/16 13:20:28;;;;;;;2.33;1.30;;;;;;;;;;5072823;28;20254;-83
2023/10/16 13:22:56;;;;;;;2.03;1.23;;;;;;;;;;5050292;28;20238;-83
2023/10/16 13:25:25;;;;;;;2.60;1.50;;;;;;;;;;5064101;28;20221;-83
2023/10/16 13:27:53;;;;;;;3.50;1.43;;;;;;;;;;5064390;28;20592;-83
2023/10/16 13:30:22;;;;;;;1.47;1.20;;;;;;;;;;5072363;28;20219;-82
2023/10/16 13:32:49;;;;;;;1.60;1.40;;;;;;;;;;5060082;28;20205;-83
2023/10/16 13:35:18;;;;;;;1.90;1.77;;;;;;;;;;5058242;28;20201;-81
2023/10/16 13:37:47;;;;;;;2.60;1.43;;;;;;;;;;5059287;28;20300;-82
2023/10/16 13:40:20;;;;;;;2.50;1.50;;;;;;;;;;5039877;28;20213;-85
2023/10/16 13:42:49;;;;;;;3.10;1.50;;;;;;;;;;5067272;28;20200;-83
2023/10/16 13:45:18;;;;;;;1.50;1.40;;;;;;;;;;5071937;28;20712;-83
2023/10/16 13:47:46;;;;;;;1.30;1.20;;;;;;;;;;5071210;28;20698;-82
2023/10/16 13:50:14;;;;;;;1.27;1.17;;;;;;;;;;5072607;28;20233;-82
2023/10/16 13:52:43;;;;;;;3.13;1.30;;;;;;;;;;5069632;28;20671;-82
2023/10/16 13:55:13;;;;;;;1.77;1.40;;;;;;;;;;5052489;28;20683;-82
2023/10/16 13:57:42;;;;;;;1.87;1.20;;;;;;;;;;5055058;28;20208;-83
2023/10/16 14:00:28;;;;;;;2.17;1.20;;;;;;;;;;5071899;28;20197;-82
2023/10/16 14:02:56;;;;;;;3.90;1.27;;;;;;;;;;5072243;28;20205;-83
2023/10/16 14:05:24;;;;;;;1.77;1.50;;;;;;;;;;5070766;28;20225;-84
2023/10/16 14:07:53;;;;;;;2.13;1.30;;;;;;;;;;5059126;28;20216;-82
2023/10/16 14:10:23;;;;;;;1.67;1.23;;;;;;;;;;5071766;28;20282;-82
2023/10/16 14:12:58;;;;;;;4.73;1.47;;;;;;;;;;5071826;28;20205;-82
2023/10/16 14:15:32;;;;;;;1.70;1.27;;;;;;;;;;5071307;28;20201;-82
2023/10/16 14:18:00;;;;;;;2.10;1.40;;;;;;;;;;5061098;28;20217;-82
2023/10/16 14:20:36;;;;;;;1.87;1.53;;;;;;;;;;5065021;28;20209;-82
2023/10/16 14:23:09;;;;;;;1.20;1.10;;;;;;;;;;5051345;28;20208;-82
2023/10/16 14:25:41;;;;;;;2.43;1.00;;;;;;;;;;5038440;28;20256;-82
2023/10/16 14:28:25;;;;;;;1.50;1.40;;;;;;;;;;5065851;28;20197;-83
2023/10/16 14:30:54;;;;;;;3.97;1.80;;;;;;;;;;5061329;28;20680;-81
2023/10/16 14:33:22;;;;;;;3.27;1.33;;;;;;;;;;5068579;28;20197;-82
2023/10/16 14:35:49;;;;;;;1.53;1.40;;;;;;;;;;5061005;28;20210;-82
2023/10/16 14:38:19;;;;;;;7.80;1.70;;;;;;;;;;5064380;28;20233;-81
2023/10/16 14:40:48;;;;;;;3.37;1.67;;;;;;;;;;5063081;28;20284;-82
2023/10/16 14:43:19;;;;;;;4.20;1.60;;;;;;;;;;5070810;28;20205;-82
2023/10/16 14:45:47;;;;;;;1.47;1.20;;;;;;;;;;5065995;28;20236;-82
2023/10/16 14:48:15;;;;;;;1.80;1.53;;;;;;;;;;5050242;28;20193;-82
2023/10/16 14:50:43;;;;;;;1.63;1.50;;;;;;;;;;5058763;28;20231;-85
2023/10/16 14:53:10;;;;;;;3.50;1.23;;;;;;;;;;5068512;28;20254;-82
2023/10/16 14:55:36;;;;;;;3.47;1.47;;;;;;;;;;5069446;28;20201;-81
2023/10/16 14:58:05;;;;;;;1.40;1.30;;;;;;;;;;5070155;28;20702;-81
2023/10/16 15:00:37;;;;;;;2.50;1.47;;;;;;;;;;5070194;28;20201;-81
2023/10/16 15:03:08;;;;;;;3.37;1.43;;;;;;;;;;5070369;28;20233;-81
2023/10/16 15:05:35;;;;;;;1.70;1.40;;;;;;;;;;5045103;28;20229;-81
2023/10/16 15:08:04;;;;;;;2.27;2.07;;;;;;;;;;5058363;28;20197;-81
2023/10/16 15:10:32;;;;;;;2.33;1.37;;;;;;;;;;5070585;28;20690;-81
2023/10/16 15:12:59;;;;;;;2.77;1.43;;;;;;;;;;5070010;28;20258;-81
2023/10/16 15:15:27;;;;;;;2.20;1.30;;;;;;;;;;5070310;28;20296;-82
2023/10/16 15:17:57;;;;;;;1.53;1.40;;;;;;;;;;5055520;28;20210;-81
2023/10/16 15:20:23;;;;;;;4.50;1.30;;;;;;;;;;5054956;28;20239;-81
2023/10/16 15:22:50;;;;;;;1.53;1.27;;;;;;;;;;5054761;28;20210;-81
2023/10/16 15:25:17;;;;;;;2.40;1.80;;;;;;;;;;5055763;28;20233;-81
2023/10/16 15:27:46;;;;;;;1.93;1.70;;;;;;;;;;5050607;28;20208;-81
2023/10/16 15:30:14;;;;;;;1.43;1.30;;;;;;;;;;5066368;28;20204;-81
2023/10/16 15:32:43;;;;;;;1.33;1.23;;;;;;;;;;5059748;28;20206;-81
2023/10/16 15:35:11;;;;;;;2.73;1.47;;;;;;;;;;5067496;28;20212;-80
2023/10/16 15:37:38;;;;;;;3.77;1.30;;;;;;;;;;5074560;28;20214;-81
2023/10/16 15:40:06;;;;;;;1.57;1.30;;;;;;;;;;5073887;28;20297;-81
2023/10/16 15:42:33;;;;;;;1.47;1.27;;;;;;;;;;5073984;28;20215;-81
2023/10/16 15:45:00;;;;;;;1.40;1.10;;;;;;;;;;5074367;28;20293;-81
2023/10/16 15:47:29;;;;;;;5.27;1.63;;;;;;;;;;5074564;28;20246;-81
2023/10/16 15:49:59;;;;;;;4.03;1.70;;;;;;;;;;5074543;28;20291;-82
2023/10/16 15:52:26;;;;;;;7.17;2.10;;;;;;;;;;5073774;28;20213;-80
2023/10/16 15:54:53;;;;;;;3.00;1.47;;;;;;;;;;5074262;28;20204;-80
2023/10/16 15:57:22;;;;;;;2.00;1.60;;;;;;;;;;5073615;28;20573;-81
2023/10/16 15:59:51;;;;;;;2.70;1.57;;;;;;;;;;5074792;28;20283;-80
2023/10/16 16:02:18;;;;;;;1.70;1.60;;;;;;;;;;5060309;28;20219;-80
2023/10/16 16:04:47;;;;;;;1.93;1.50;;;;;;;;;;5073952;28;20292;-80
2023/10/16 16:07:15;;;;;;;1.50;1.40;;;;;;;;;;5073890;28;20230;-81
2023/10/16 16:09:42;;;;;;;2.60;1.43;;;;;;;;;;5073965;28;20204;-81
2023/10/16 16:12:12;;;;;;;3.40;1.50;;;;;;;;;;5070302;28;20695;-79
2023/10/16 16:14:42;;;;;;;1.83;1.73;;;;;;;;;;5073502;28;20208;-81
2023/10/16 16:17:10;;;;;;;3.07;1.77;;;;;;;;;;5074097;28;20201;-81
2023/10/16 16:19:39;;;;;;;8.47;1.53;;;;;;;;;;5074043;28;20290;-81
2023/10/16 16:22:10;;;;;;;2.20;1.40;;;;;;;;;;5072627;28;20207;-80